sensor_id;sensor_type;location;lat;lon;timestamp;temperature;humidity
5588;DHT22;2816;49.778;9.986;2024-03-06T00:01:11;6.90;99.90
5588;DHT22;2816;49.778;9.986;2024-03-06T00:03:38;6.80;99.90
5588;DHT22;2816;49.778;9.986;2024-03-06T00:06:05;6.80;99.90
5588;DHT22;2816;49.778;9.986;2024-03-06T00:08:32;6.80;99.90
5588;DHT22;2816;49.778;9.986;2024-03-06T00:10:59;6.80;99.90
5588;DHT22;2816;49.778;9.986;2024-03-06T00:13:26;6.80;99.90
5588;DHT22;2816;49.778;9.986;2024-03-06T00:15:53;6.80;99.90
5588;DHT22;2816;49.778;9.986;2024-03-06T00:18:21;6.80;99.90
5588;DHT22;2816;49.778;9.986;2024-03-06T00:20:48;6.70;99.90
5588;DHT22;2816;49.778;9.986;2024-03-06T00:23:15;6.70;99.90
5588;DHT22;2816;49.778;9.986;2024-03-06T00:25:42;6.70;99.90
5588;DHT22;2816;49.778;9.986;2024-03-06T00:28:09;6.70;99.90
5588;DHT22;2816;49.778;9.986;2024-03-06T00:30:36;6.70;99.90
5588;DHT22;2816;49.778;9.986;2024-03-06T00:33:03;6.70;99.90
5588;DHT22;2816;49.778;9.986;2024-03-06T00:35:34;6.70;99.90
5588;DHT22;2816;49.778;9.986;2024-03-06T00:38:01;6.60;99.90
5588;DHT22;2816;49.778;9.986;2024-03-06T00:40:28;6.60;99.90
5588;DHT22;2816;49.778;9.986;2024-03-06T00:42:56;6.60;99.90
5588;DHT22;2816;49.778;9.986;2024-03-06T00:45:23;6.60;99.90
5588;DHT22;2816;49.778;9.986;2024-03-06T00:47:50;6.60;99.90
5588;DHT22;2816;49.778;9.986;2024-03-06T00:50:17;6.50;99.90
5588;DHT22;2816;49.778;9.986;2024-03-06T00:52:48;6.50;99.90
5588;DHT22;2816;49.778;9.986;2024-03-06T00:55:15;6.50;99.90
5588;DHT22;2816;49.778;9.986;2024-03-06T00:57:42;6.50;99.90
5588;DHT22;2816;49.778;9.986;2024-03-06T01:00:10;6.40;99.90
5588;DHT22;2816;49.778;9.986;2024-03-06T01:02:37;6.30;99.90
5588;DHT22;2816;49.778;9.986;2024-03-06T01:05:05;6.30;99.90
5588;DHT22;2816;49.778;9.986;2024-03-06T01:07:32;6.30;99.90
5588;DHT22;2816;49.778;9.986;2024-03-06T01:10:01;6.30;99.90
5588;DHT22;2816;49.778;9.986;2024-03-06T01:12:28;6.30;99.90
5588;DHT22;2816;49.778;9.986;2024-03-06T01:14:56;6.30;99.90
5588;DHT22;2816;49.778;9.986;2024-03-06T01:17:23;6.30;99.90
5588;DHT22;2816;49.778;9.986;2024-03-06T01:19:50;6.30;99.90
5588;DHT22;2816;49.778;9.986;2024-03-06T01:22:17;6.30;99.90
5588;DHT22;2816;49.778;9.986;2024-03-06T01:24:44;6.30;99.90
5588;DHT22;2816;49.778;9.986;2024-03-06T01:27:16;6.30;99.90
5588;DHT22;2816;49.778;9.986;2024-03-06T01:29:43;6.30;99.90
5588;DHT22;2816;49.778;9.986;2024-03-06T01:32:09;6.30;99.90
5588;DHT22;2816;49.778;9.986;2024-03-06T01:34:36;6.30;99.90
5588;DHT22;2816;49.778;9.986;2024-03-06T01:37:03;6.30;99.90
5588;DHT22;2816;49.778;9.986;2024-03-06T01:39:30;6.30;99.90
5588;DHT22;2816;49.778;9.986;2024-03-06T01:41:57;6.30;99.90
5588;DHT22;2816;49.778;9.986;2024-03-06T01:44:25;6.30;99.90
5588;DHT22;2816;49.778;9.986;2024-03-06T01:46:52;6.30;99.90
5588;DHT22;2816;49.778;9.986;2024-03-06T01:49:19;6.30;99.90
5588;DHT22;2816;49.778;9.986;2024-03-06T01:51:49;6.30;99.90
5588;DHT22;2816;49.778;9.986;2024-03-06T01:54:17;6.30;99.90
5588;DHT22;2816;49.778;9.986;2024-03-06T01:56:45;6.30;99.90
5588;DHT22;2816;49.778;9.986;2024-03-06T01:59:13;6.20;99.90
5588;DHT22;2816;49.778;9.986;2024-03-06T02:01:43;6.30;99.90
5588;DHT22;2816;49.778;9.986;2024-03-06T02:04:12;6.30;99.90
5588;DHT22;2816;49.778;9.986;2024-03-06T02:06:39;6.30;99.90
5588;DHT22;2816;49.778;9.986;2024-03-06T02:09:06;6.30;99.90
5588;DHT22;2816;49.778;9.986;2024-03-06T02:11:35;6.30;99.90
5588;DHT22;2816;49.778;9.986;2024-03-06T02:14:02;6.30;99.90
5588;DHT22;2816;49.778;9.986;2024-03-06T02:16:29;6.20;99.90
5588;DHT22;2816;49.778;9.986;2024-03-06T02:18:57;6.20;99.90
5588;DHT22;2816;49.778;9.986;2024-03-06T02:21:26;6.20;99.90
5588;DHT22;2816;49.778;9.986;2024-03-06T02:23:55;6.20;99.90
5588;DHT22;2816;49.778;9.986;2024-03-06T02:26:22;6.20;99.90
5588;DHT22;2816;49.778;9.986;2024-03-06T02:28:50;6.30;99.90
5588;DHT22;2816;49.778;9.986;2024-03-06T02:31:17;6.20;99.90
5588;DHT22;2816;49.778;9.986;2024-03-06T02:33:46;6.20;99.90
5588;DHT22;2816;49.778;9.986;2024-03-06T02:36:13;6.20;99.90
5588;DHT22;2816;49.778;9.986;2024-03-06T02:38:42;6.20;99.90
5588;DHT22;2816;49.778;9.986;2024-03-06T02:41:09;6.20;99.90
5588;DHT22;2816;49.778;9.986;2024-03-06T02:43:37;6.20;99.90
5588;DHT22;2816;49.778;9.986;2024-03-06T02:46:04;6.20;99.90
5588;DHT22;2816;49.778;9.986;2024-03-06T02:48:31;6.20;99.90
5588;DHT22;2816;49.778;9.986;2024-03-06T02:50:58;6.20;99.90
5588;DHT22;2816;49.778;9.986;2024-03-06T02:53:25;6.20;99.90
5588;DHT22;2816;49.778;9.986;2024-03-06T02:55:54;6.20;99.90
5588;DHT22;2816;49.778;9.986;2024-03-06T02:58:21;6.20;99.90
5588;DHT22;2816;49.778;9.986;2024-03-06T03:00:48;6.20;99.90
5588;DHT22;2816;49.778;9.986;2024-03-06T03:03:15;6.10;99.90
5588;DHT22;2816;49.778;9.986;2024-03-06T03:05:42;6.10;99.90
5588;DHT22;2816;49.778;9.986;2024-03-06T03:08:09;6.20;99.90
5588;DHT22;2816;49.778;9.986;2024-03-06T03:10:37;6.10;99.90
5588;DHT22;2816;49.778;9.986;2024-03-06T03:13:05;6.20;99.90
5588;DHT22;2816;49.778;9.986;2024-03-06T03:15:33;6.10;99.90
5588;DHT22;2816;49.778;9.986;2024-03-06T03:18:00;6.10;99.90
5588;DHT22;2816;49.778;9.986;2024-03-06T03:20:27;6.10;99.90
5588;DHT22;2816;49.778;9.986;2024-03-06T03:22:53;6.00;99.90
5588;DHT22;2816;49.778;9.986;2024-03-06T03:25:20;6.00;99.90
5588;DHT22;2816;49.778;9.986;2024-03-06T03:27:48;6.00;99.90
5588;DHT22;2816;49.778;9.986;2024-03-06T03:30:17;6.00;99.90
5588;DHT22;2816;49.778;9.986;2024-03-06T03:32:47;5.90;99.90
5588;DHT22;2816;49.778;9.986;2024-03-06T03:35:14;6.00;99.90
5588;DHT22;2816;49.778;9.986;2024-03-06T03:37:42;5.90;99.90
5588;DHT22;2816;49.778;9.986;2024-03-06T03:40:10;5.90;99.90
5588;DHT22;2816;49.778;9.986;2024-03-06T03:42:37;5.90;99.90
5588;DHT22;2816;49.778;9.986;2024-03-06T03:45:05;5.90;99.90
5588;DHT22;2816;49.778;9.986;2024-03-06T03:47:33;5.90;99.90
5588;DHT22;2816;49.778;9.986;2024-03-06T03:50:00;5.90;99.90
5588;DHT22;2816;49.778;9.986;2024-03-06T03:52:27;5.90;99.90
5588;DHT22;2816;49.778;9.986;2024-03-06T03:54:54;5.90;99.90
5588;DHT22;2816;49.778;9.986;2024-03-06T03:57:21;5.80;99.90
5588;DHT22;2816;49.778;9.986;2024-03-06T03:59:47;5.80;99.90
5588;DHT22;2816;49.778;9.986;2024-03-06T04:02:14;5.80;99.90
5588;DHT22;2816;49.778;9.986;2024-03-06T04:04:42;5.80;99.90
5588;DHT22;2816;49.778;9.986;2024-03-06T04:07:09;5.90;99.90
5588;DHT22;2816;49.778;9.986;2024-03-06T04:09:36;5.80;99.90
5588;DHT22;2816;49.778;9.986;2024-03-06T04:12:05;5.90;99.90
5588;DHT22;2816;49.778;9.986;2024-03-06T04:14:31;5.80;99.90
5588;DHT22;2816;49.778;9.986;2024-03-06T04:16:58;5.90;99.90
5588;DHT22;2816;49.778;9.986;2024-03-06T04:19:25;5.80;99.90
5588;DHT22;2816;49.778;9.986;2024-03-06T04:21:54;5.80;99.90
5588;DHT22;2816;49.778;9.986;2024-03-06T04:24:20;5.90;99.90
5588;DHT22;2816;49.778;9.986;2024-03-06T04:26:47;5.90;99.90
5588;DHT22;2816;49.778;9.986;2024-03-06T04:29:14;5.90;99.90
5588;DHT22;2816;49.778;9.986;2024-03-06T04:31:41;5.90;99.90
5588;DHT22;2816;49.778;9.986;2024-03-06T04:34:08;5.90;99.90
5588;DHT22;2816;49.778;9.986;2024-03-06T04:36:35;6.00;99.90
5588;DHT22;2816;49.778;9.986;2024-03-06T04:39:03;6.00;99.90
5588;DHT22;2816;49.778;9.986;2024-03-06T04:41:32;6.00;99.90
5588;DHT22;2816;49.778;9.986;2024-03-06T04:43:59;6.00;99.90
5588;DHT22;2816;49.778;9.986;2024-03-06T04:46:26;6.00;99.90
5588;DHT22;2816;49.778;9.986;2024-03-06T04:48:53;6.00;99.90
5588;DHT22;2816;49.778;9.986;2024-03-06T04:51:20;6.00;99.90
5588;DHT22;2816;49.778;9.986;2024-03-06T04:53:48;6.10;99.90
5588;DHT22;2816;49.778;9.986;2024-03-06T04:56:16;6.00;99.90
5588;DHT22;2816;49.778;9.986;2024-03-06T04:58:44;6.10;99.90
5588;DHT22;2816;49.778;9.986;2024-03-06T05:01:11;6.00;99.90
5588;DHT22;2816;49.778;9.986;2024-03-06T05:03:39;6.10;99.90
5588;DHT22;2816;49.778;9.986;2024-03-06T05:06:06;6.10;99.90
5588;DHT22;2816;49.778;9.986;2024-03-06T05:08:33;6.10;99.90
5588;DHT22;2816;49.778;9.986;2024-03-06T05:11:00;6.10;99.90
5588;DHT22;2816;49.778;9.986;2024-03-06T05:13:30;6.10;99.90
5588;DHT22;2816;49.778;9.986;2024-03-06T05:15:57;6.10;99.90
5588;DHT22;2816;49.778;9.986;2024-03-06T05:18:24;6.10;99.90
5588;DHT22;2816;49.778;9.986;2024-03-06T05:20:51;6.10;99.90
5588;DHT22;2816;49.778;9.986;2024-03-06T05:23:19;6.10;99.90
5588;DHT22;2816;49.778;9.986;2024-03-06T05:25:46;6.20;99.90
5588;DHT22;2816;49.778;9.986;2024-03-06T05:28:13;6.10;99.90
5588;DHT22;2816;49.778;9.986;2024-03-06T05:30:41;6.20;99.90
5588;DHT22;2816;49.778;9.986;2024-03-06T05:33:08;6.20;99.90
5588;DHT22;2816;49.778;9.986;2024-03-06T05:35:36;6.20;99.90
5588;DHT22;2816;49.778;9.986;2024-03-06T05:38:03;6.20;99.90
5588;DHT22;2816;49.778;9.986;2024-03-06T05:40:30;6.20;99.90
5588;DHT22;2816;49.778;9.986;2024-03-06T05:43:01;6.10;99.90
5588;DHT22;2816;49.778;9.986;2024-03-06T05:45:28;6.20;99.90
5588;DHT22;2816;49.778;9.986;2024-03-06T05:47:56;6.20;99.90
5588;DHT22;2816;49.778;9.986;2024-03-06T05:50:23;6.20;99.90
5588;DHT22;2816;49.778;9.986;2024-03-06T05:52:51;6.20;99.90
5588;DHT22;2816;49.778;9.986;2024-03-06T05:55:18;6.20;99.90
5588;DHT22;2816;49.778;9.986;2024-03-06T05:57:44;6.20;99.90
5588;DHT22;2816;49.778;9.986;2024-03-06T06:00:13;6.20;99.90
5588;DHT22;2816;49.778;9.986;2024-03-06T06:02:40;6.20;99.90
5588;DHT22;2816;49.778;9.986;2024-03-06T06:05:09;6.30;99.90
5588;DHT22;2816;49.778;9.986;2024-03-06T06:07:36;6.30;99.90
5588;DHT22;2816;49.778;9.986;2024-03-06T06:10:04;6.20;99.90
5588;DHT22;2816;49.778;9.986;2024-03-06T06:12:34;6.20;99.90
5588;DHT22;2816;49.778;9.986;2024-03-06T06:15:02;6.20;99.90
5588;DHT22;2816;49.778;9.986;2024-03-06T06:17:29;6.20;99.90
5588;DHT22;2816;49.778;9.986;2024-03-06T06:19:56;6.20;99.90
5588;DHT22;2816;49.778;9.986;2024-03-06T06:22:26;6.20;99.90
5588;DHT22;2816;49.778;9.986;2024-03-06T06:24:53;6.20;99.90
5588;DHT22;2816;49.778;9.986;2024-03-06T06:27:21;6.30;99.90
5588;DHT22;2816;49.778;9.986;2024-03-06T06:29:50;6.30;99.90
5588;DHT22;2816;49.778;9.986;2024-03-06T06:32:20;6.30;99.90
5588;DHT22;2816;49.778;9.986;2024-03-06T06:34:48;6.30;99.90
5588;DHT22;2816;49.778;9.986;2024-03-06T06:37:15;6.30;99.90
5588;DHT22;2816;49.778;9.986;2024-03-06T06:39:45;6.30;99.90
5588;DHT22;2816;49.778;9.986;2024-03-06T06:42:12;6.30;99.90
5588;DHT22;2816;49.778;9.986;2024-03-06T06:44:39;6.40;99.90
5588;DHT22;2816;49.778;9.986;2024-03-06T06:47:07;6.40;99.90
5588;DHT22;2816;49.778;9.986;2024-03-06T06:49:34;6.40;99.90
5588;DHT22;2816;49.778;9.986;2024-03-06T06:52:01;6.30;99.90
5588;DHT22;2816;49.778;9.986;2024-03-06T06:54:29;6.40;99.90
5588;DHT22;2816;49.778;9.986;2024-03-06T06:56:58;6.40;99.90
5588;DHT22;2816;49.778;9.986;2024-03-06T06:59:25;6.40;99.90
5588;DHT22;2816;49.778;9.986;2024-03-06T07:01:53;6.40;99.90
5588;DHT22;2816;49.778;9.986;2024-03-06T07:04:21;6.40;99.90
5588;DHT22;2816;49.778;9.986;2024-03-06T07:06:49;6.40;99.90
5588;DHT22;2816;49.778;9.986;2024-03-06T07:09:16;6.50;99.90
5588;DHT22;2816;49.778;9.986;2024-03-06T07:11:44;6.50;99.90
5588;DHT22;2816;49.778;9.986;2024-03-06T07:14:13;6.50;99.90
5588;DHT22;2816;49.778;9.986;2024-03-06T07:16:42;6.50;99.90
5588;DHT22;2816;49.778;9.986;2024-03-06T07:19:09;6.50;99.90
5588;DHT22;2816;49.778;9.986;2024-03-06T07:21:36;6.50;99.90
5588;DHT22;2816;49.778;9.986;2024-03-06T07:24:03;6.50;99.90
5588;DHT22;2816;49.778;9.986;2024-03-06T07:26:32;6.50;99.90
5588;DHT22;2816;49.778;9.986;2024-03-06T07:28:59;6.50;99.90
5588;DHT22;2816;49.778;9.986;2024-03-06T07:31:27;6.50;99.90
5588;DHT22;2816;49.778;9.986;2024-03-06T07:33:54;6.50;99.90
5588;DHT22;2816;49.778;9.986;2024-03-06T07:36:21;6.50;99.90
5588;DHT22;2816;49.778;9.986;2024-03-06T07:38:48;6.50;99.90
5588;DHT22;2816;49.778;9.986;2024-03-06T07:41:15;6.60;99.90
5588;DHT22;2816;49.778;9.986;2024-03-06T07:43:42;6.60;99.90
5588;DHT22;2816;49.778;9.986;2024-03-06T07:46:09;6.60;99.90
5588;DHT22;2816;49.778;9.986;2024-03-06T07:48:42;6.60;99.90
5588;DHT22;2816;49.778;9.986;2024-03-06T07:51:09;6.60;99.90
5588;DHT22;2816;49.778;9.986;2024-03-06T07:53:36;6.70;99.90
5588;DHT22;2816;49.778;9.986;2024-03-06T07:56:04;6.70;99.90
5588;DHT22;2816;49.778;9.986;2024-03-06T07:58:31;6.70;99.90
5588;DHT22;2816;49.778;9.986;2024-03-06T08:00:58;6.70;99.90
5588;DHT22;2816;49.778;9.986;2024-03-06T08:03:25;6.80;99.90
5588;DHT22;2816;49.778;9.986;2024-03-06T08:05:54;6.90;99.90
5588;DHT22;2816;49.778;9.986;2024-03-06T08:08:21;6.90;99.90
5588;DHT22;2816;49.778;9.986;2024-03-06T08:10:48;6.90;99.90
5588;DHT22;2816;49.778;9.986;2024-03-06T08:13:16;6.90;99.90
5588;DHT22;2816;49.778;9.986;2024-03-06T08:15:44;6.90;99.90
5588;DHT22;2816;49.778;9.986;2024-03-06T08:18:11;7.00;99.90
5588;DHT22;2816;49.778;9.986;2024-03-06T08:20:38;6.90;99.90
5588;DHT22;2816;49.778;9.986;2024-03-06T08:23:07;7.00;99.90
5588;DHT22;2816;49.778;9.986;2024-03-06T08:25:35;7.00;99.90
5588;DHT22;2816;49.778;9.986;2024-03-06T08:28:02;7.00;99.90
5588;DHT22;2816;49.778;9.986;2024-03-06T08:30:31;7.10;99.90
5588;DHT22;2816;49.778;9.986;2024-03-06T08:32:58;7.10;99.90
5588;DHT22;2816;49.778;9.986;2024-03-06T08:35:25;7.00;99.90
5588;DHT22;2816;49.778;9.986;2024-03-06T08:37:52;7.10;99.90
5588;DHT22;2816;49.778;9.986;2024-03-06T08:40:21;7.10;99.90
5588;DHT22;2816;49.778;9.986;2024-03-06T08:42:48;7.20;99.90
5588;DHT22;2816;49.778;9.986;2024-03-06T08:45:16;7.20;99.90
5588;DHT22;2816;49.778;9.986;2024-03-06T08:47:43;7.20;99.90
5588;DHT22;2816;49.778;9.986;2024-03-06T08:50:11;7.20;99.90
5588;DHT22;2816;49.778;9.986;2024-03-06T08:52:38;7.20;99.90
5588;DHT22;2816;49.778;9.986;2024-03-06T08:55:06;7.20;99.90
5588;DHT22;2816;49.778;9.986;2024-03-06T08:57:36;7.20;99.90
5588;DHT22;2816;49.778;9.986;2024-03-06T09:00:05;7.20;99.90
5588;DHT22;2816;49.778;9.986;2024-03-06T09:02:34;7.20;99.90
5588;DHT22;2816;49.778;9.986;2024-03-06T09:05:01;7.20;99.90
5588;DHT22;2816;49.778;9.986;2024-03-06T09:07:30;7.20;99.90
5588;DHT22;2816;49.778;9.986;2024-03-06T09:09:57;7.20;99.90
5588;DHT22;2816;49.778;9.986;2024-03-06T09:12:23;7.20;99.90
5588;DHT22;2816;49.778;9.986;2024-03-06T09:14:52;7.20;99.90
5588;DHT22;2816;49.778;9.986;2024-03-06T09:17:19;7.20;99.90
5588;DHT22;2816;49.778;9.986;2024-03-06T09:19:46;7.20;99.90
5588;DHT22;2816;49.778;9.986;2024-03-06T09:22:12;7.20;99.90
5588;DHT22;2816;49.778;9.986;2024-03-06T09:24:39;7.20;99.90
5588;DHT22;2816;49.778;9.986;2024-03-06T09:27:06;7.20;99.90
5588;DHT22;2816;49.778;9.986;2024-03-06T09:29:33;7.20;99.90
5588;DHT22;2816;49.778;9.986;2024-03-06T09:32:01;7.20;99.90
5588;DHT22;2816;49.778;9.986;2024-03-06T09:34:28;7.20;99.90
5588;DHT22;2816;49.778;9.986;2024-03-06T09:36:55;7.20;99.90
5588;DHT22;2816;49.778;9.986;2024-03-06T09:39:22;7.20;99.90
5588;DHT22;2816;49.778;9.986;2024-03-06T09:41:49;7.20;99.90
5588;DHT22;2816;49.778;9.986;2024-03-06T09:44:16;7.20;99.90
5588;DHT22;2816;49.778;9.986;2024-03-06T09:46:44;7.30;99.90
5588;DHT22;2816;49.778;9.986;2024-03-06T09:49:13;7.30;99.90
5588;DHT22;2816;49.778;9.986;2024-03-06T09:51:42;7.30;99.90
5588;DHT22;2816;49.778;9.986;2024-03-06T09:54:11;7.30;99.90
5588;DHT22;2816;49.778;9.986;2024-03-06T09:56:41;7.30;99.90
5588;DHT22;2816;49.778;9.986;2024-03-06T09:59:09;7.40;99.90
5588;DHT22;2816;49.778;9.986;2024-03-06T10:01:39;7.40;99.90
5588;DHT22;2816;49.778;9.986;2024-03-06T10:04:19;7.40;99.90
5588;DHT22;2816;49.778;9.986;2024-03-06T10:06:46;7.50;99.90
5588;DHT22;2816;49.778;9.986;2024-03-06T10:09:17;7.50;99.90
5588;DHT22;2816;49.778;9.986;2024-03-06T10:11:44;7.50;99.90
5588;DHT22;2816;49.778;9.986;2024-03-06T10:14:11;7.50;99.90
5588;DHT22;2816;49.778;9.986;2024-03-06T10:16:52;7.60;99.90
5588;DHT22;2816;49.778;9.986;2024-03-06T10:19:21;7.50;99.90
5588;DHT22;2816;49.778;9.986;2024-03-06T10:21:49;7.60;99.90
5588;DHT22;2816;49.778;9.986;2024-03-06T10:24:18;7.60;99.90
5588;DHT22;2816;49.778;9.986;2024-03-06T10:26:47;7.60;99.90
5588;DHT22;2816;49.778;9.986;2024-03-06T10:29:17;7.60;99.90
5588;DHT22;2816;49.778;9.986;2024-03-06T10:31:52;7.70;99.90
5588;DHT22;2816;49.778;9.986;2024-03-06T10:34:22;7.70;99.90
5588;DHT22;2816;49.778;9.986;2024-03-06T10:36:54;7.80;99.90
5588;DHT22;2816;49.778;9.986;2024-03-06T10:39:21;7.80;99.90
5588;DHT22;2816;49.778;9.986;2024-03-06T10:41:51;7.80;99.90
5588;DHT22;2816;49.778;9.986;2024-03-06T10:44:21;7.80;99.90
5588;DHT22;2816;49.778;9.986;2024-03-06T10:46:59;7.90;99.90
5588;DHT22;2816;49.778;9.986;2024-03-06T10:49:28;7.90;99.90
5588;DHT22;2816;49.778;9.986;2024-03-06T10:51:57;7.90;99.90
5588;DHT22;2816;49.778;9.986;2024-03-06T10:54:27;8.00;99.90
5588;DHT22;2816;49.778;9.986;2024-03-06T10:56:55;8.10;99.90
5588;DHT22;2816;49.778;9.986;2024-03-06T10:59:25;8.10;99.90
5588;DHT22;2816;49.778;9.986;2024-03-06T11:01:54;8.10;99.90
5588;DHT22;2816;49.778;9.986;2024-03-06T11:04:24;8.00;99.90
5588;DHT22;2816;49.778;9.986;2024-03-06T11:06:53;8.10;99.90
5588;DHT22;2816;49.778;9.986;2024-03-06T11:09:20;8.20;99.90
5588;DHT22;2816;49.778;9.986;2024-03-06T11:11:48;8.20;99.90
5588;DHT22;2816;49.778;9.986;2024-03-06T11:14:15;8.20;99.90
5588;DHT22;2816;49.778;9.986;2024-03-06T11:17:04;8.30;99.90
5588;DHT22;2816;49.778;9.986;2024-03-06T11:19:32;8.30;99.90
5588;DHT22;2816;49.778;9.986;2024-03-06T11:26:02;8.30;99.90
5588;DHT22;2816;49.778;9.986;2024-03-06T11:28:30;8.40;99.90
5588;DHT22;2816;49.778;9.986;2024-03-06T11:30:58;8.40;99.90
5588;DHT22;2816;49.778;9.986;2024-03-06T11:33:35;8.40;99.90
5588;DHT22;2816;49.778;9.986;2024-03-06T11:36:16;8.40;99.90
5588;DHT22;2816;49.778;9.986;2024-03-06T11:38:50;8.40;99.90
5588;DHT22;2816;49.778;9.986;2024-03-06T11:41:19;8.40;99.90
5588;DHT22;2816;49.778;9.986;2024-03-06T11:43:46;8.40;99.90
5588;DHT22;2816;49.778;9.986;2024-03-06T11:46:16;8.50;99.90
5588;DHT22;2816;49.778;9.986;2024-03-06T11:48:43;8.50;99.90
5588;DHT22;2816;49.778;9.986;2024-03-06T11:51:18;8.50;99.90
5588;DHT22;2816;49.778;9.986;2024-03-06T11:53:45;8.50;99.90
5588;DHT22;2816;49.778;9.986;2024-03-06T11:56:13;8.50;99.90
5588;DHT22;2816;49.778;9.986;2024-03-06T11:58:40;8.60;99.90
5588;DHT22;2816;49.778;9.986;2024-03-06T12:01:07;8.60;99.90
5588;DHT22;2816;49.778;9.986;2024-03-06T12:03:34;8.70;99.90
5588;DHT22;2816;49.778;9.986;2024-03-06T12:06:01;8.80;99.90
5588;DHT22;2816;49.778;9.986;2024-03-06T12:08:28;8.80;99.90
5588;DHT22;2816;49.778;9.986;2024-03-06T12:10:56;8.90;99.90
5588;DHT22;2816;49.778;9.986;2024-03-06T12:13:25;8.90;99.90
5588;DHT22;2816;49.778;9.986;2024-03-06T12:15:52;9.00;99.90
5588;DHT22;2816;49.778;9.986;2024-03-06T12:18:19;8.90;99.90
5588;DHT22;2816;49.778;9.986;2024-03-06T12:20:49;8.90;99.90
5588;DHT22;2816;49.778;9.986;2024-03-06T12:23:20;8.90;99.90
5588;DHT22;2816;49.778;9.986;2024-03-06T12:25:48;8.90;99.90
5588;DHT22;2816;49.778;9.986;2024-03-06T12:28:15;8.90;99.90
5588;DHT22;2816;49.778;9.986;2024-03-06T12:30:45;9.00;99.90
5588;DHT22;2816;49.778;9.986;2024-03-06T12:33:16;8.90;99.90
5588;DHT22;2816;49.778;9.986;2024-03-06T12:35:43;9.00;99.90
5588;DHT22;2816;49.778;9.986;2024-03-06T12:38:14;8.90;99.90
5588;DHT22;2816;49.778;9.986;2024-03-06T12:40:41;9.00;99.90
5588;DHT22;2816;49.778;9.986;2024-03-06T12:43:09;9.00;99.90
5588;DHT22;2816;49.778;9.986;2024-03-06T12:45:37;9.00;99.90
5588;DHT22;2816;49.778;9.986;2024-03-06T12:48:07;9.00;99.90
5588;DHT22;2816;49.778;9.986;2024-03-06T12:50:35;9.00;99.90
5588;DHT22;2816;49.778;9.986;2024-03-06T12:53:02;9.10;99.90
5588;DHT22;2816;49.778;9.986;2024-03-06T12:55:30;9.10;99.90
5588;DHT22;2816;49.778;9.986;2024-03-06T12:57:57;9.10;99.90
5588;DHT22;2816;49.778;9.986;2024-03-06T13:00:24;9.20;99.90
5588;DHT22;2816;49.778;9.986;2024-03-06T13:02:51;9.20;99.90
5588;DHT22;2816;49.778;9.986;2024-03-06T13:05:19;9.30;99.90
5588;DHT22;2816;49.778;9.986;2024-03-06T13:07:46;9.40;99.90
5588;DHT22;2816;49.778;9.986;2024-03-06T13:10:13;9.50;99.90
5588;DHT22;2816;49.778;9.986;2024-03-06T13:12:40;9.60;99.90
5588;DHT22;2816;49.778;9.986;2024-03-06T13:15:06;9.60;99.90
5588;DHT22;2816;49.778;9.986;2024-03-06T13:17:33;9.70;99.90
5588;DHT22;2816;49.778;9.986;2024-03-06T13:20:00;9.60;99.90
5588;DHT22;2816;49.778;9.986;2024-03-06T13:22:29;9.60;99.90
5588;DHT22;2816;49.778;9.986;2024-03-06T13:24:57;9.70;99.90
5588;DHT22;2816;49.778;9.986;2024-03-06T13:27:24;9.70;99.90
5588;DHT22;2816;49.778;9.986;2024-03-06T13:29:50;9.70;99.90
5588;DHT22;2816;49.778;9.986;2024-03-06T13:32:17;9.70;99.90
5588;DHT22;2816;49.778;9.986;2024-03-06T13:34:44;9.70;99.90
5588;DHT22;2816;49.778;9.986;2024-03-06T13:37:12;9.80;99.90
5588;DHT22;2816;49.778;9.986;2024-03-06T13:39:40;9.80;99.90
5588;DHT22;2816;49.778;9.986;2024-03-06T13:42:07;9.80;99.90
5588;DHT22;2816;49.778;9.986;2024-03-06T13:44:36;9.70;99.90
5588;DHT22;2816;49.778;9.986;2024-03-06T13:47:03;9.80;99.90
5588;DHT22;2816;49.778;9.986;2024-03-06T13:49:40;9.80;99.90
5588;DHT22;2816;49.778;9.986;2024-03-06T13:52:09;9.90;99.90
5588;DHT22;2816;49.778;9.986;2024-03-06T13:54:41;9.90;99.90
5588;DHT22;2816;49.778;9.986;2024-03-06T13:57:08;10.00;99.90
5588;DHT22;2816;49.778;9.986;2024-03-06T13:59:35;10.00;99.90
5588;DHT22;2816;49.778;9.986;2024-03-06T14:02:03;9.90;99.90
5588;DHT22;2816;49.778;9.986;2024-03-06T14:04:30;10.00;99.90
5588;DHT22;2816;49.778;9.986;2024-03-06T14:06:57;10.00;99.90
5588;DHT22;2816;49.778;9.986;2024-03-06T14:09:25;10.00;99.90
5588;DHT22;2816;49.778;9.986;2024-03-06T14:11:54;10.00;99.90
5588;DHT22;2816;49.778;9.986;2024-03-06T14:14:20;10.00;99.90
5588;DHT22;2816;49.778;9.986;2024-03-06T14:16:47;10.10;99.90
5588;DHT22;2816;49.778;9.986;2024-03-06T14:19:14;10.20;99.90
5588;DHT22;2816;49.778;9.986;2024-03-06T14:21:41;10.30;99.90
5588;DHT22;2816;49.778;9.986;2024-03-06T14:24:08;10.30;99.90
5588;DHT22;2816;49.778;9.986;2024-03-06T14:26:35;10.20;99.90
5588;DHT22;2816;49.778;9.986;2024-03-06T14:29:05;10.30;99.90
5588;DHT22;2816;49.778;9.986;2024-03-06T14:31:35;10.40;99.90
5588;DHT22;2816;49.778;9.986;2024-03-06T14:34:02;10.60;99.90
5588;DHT22;2816;49.778;9.986;2024-03-06T14:36:29;10.70;99.90
5588;DHT22;2816;49.778;9.986;2024-03-06T14:38:55;10.80;99.90
5588;DHT22;2816;49.778;9.986;2024-03-06T14:41:22;10.80;99.90
5588;DHT22;2816;49.778;9.986;2024-03-06T14:43:49;10.90;99.90
5588;DHT22;2816;49.778;9.986;2024-03-06T14:46:17;10.90;99.90
5588;DHT22;2816;49.778;9.986;2024-03-06T14:48:45;11.00;99.90
5588;DHT22;2816;49.778;9.986;2024-03-06T14:51:12;11.10;99.90
5588;DHT22;2816;49.778;9.986;2024-03-06T14:53:39;11.20;99.90
5588;DHT22;2816;49.778;9.986;2024-03-06T14:56:06;11.20;99.90
5588;DHT22;2816;49.778;9.986;2024-03-06T14:58:33;11.20;99.90
5588;DHT22;2816;49.778;9.986;2024-03-06T15:01:01;11.30;99.90
5588;DHT22;2816;49.778;9.986;2024-03-06T15:03:30;11.30;99.90
5588;DHT22;2816;49.778;9.986;2024-03-06T15:05:57;11.40;99.90
5588;DHT22;2816;49.778;9.986;2024-03-06T15:08:23;11.40;99.90
5588;DHT22;2816;49.778;9.986;2024-03-06T15:10:50;11.20;99.90
5588;DHT22;2816;49.778;9.986;2024-03-06T15:13:19;11.20;99.90
5588;DHT22;2816;49.778;9.986;2024-03-06T15:15:48;11.00;99.90
5588;DHT22;2816;49.778;9.986;2024-03-06T15:18:16;10.80;99.90
5588;DHT22;2816;49.778;9.986;2024-03-06T15:20:44;10.70;99.90
5588;DHT22;2816;49.778;9.986;2024-03-06T15:23:11;10.60;99.90
5588;DHT22;2816;49.778;9.986;2024-03-06T15:25:38;10.50;99.90
5588;DHT22;2816;49.778;9.986;2024-03-06T15:28:05;10.60;99.90
5588;DHT22;2816;49.778;9.986;2024-03-06T15:30:32;10.70;99.90
5588;DHT22;2816;49.778;9.986;2024-03-06T15:33:00;10.60;99.90
5588;DHT22;2816;49.778;9.986;2024-03-06T15:35:28;10.60;99.90
5588;DHT22;2816;49.778;9.986;2024-03-06T15:37:56;10.50;99.90
5588;DHT22;2816;49.778;9.986;2024-03-06T15:40:23;10.40;99.90
5588;DHT22;2816;49.778;9.986;2024-03-06T15:42:50;10.40;99.90
5588;DHT22;2816;49.778;9.986;2024-03-06T15:45:17;10.50;99.90
5588;DHT22;2816;49.778;9.986;2024-03-06T15:47:45;10.30;99.90
5588;DHT22;2816;49.778;9.986;2024-03-06T15:50:12;10.30;99.90
5588;DHT22;2816;49.778;9.986;2024-03-06T15:52:39;10.30;99.90
5588;DHT22;2816;49.778;9.986;2024-03-06T15:55:08;10.20;99.90
5588;DHT22;2816;49.778;9.986;2024-03-06T15:57:36;10.20;99.90
5588;DHT22;2816;49.778;9.986;2024-03-06T16:00:04;10.20;99.90
5588;DHT22;2816;49.778;9.986;2024-03-06T16:02:31;10.20;99.90
5588;DHT22;2816;49.778;9.986;2024-03-06T16:04:58;10.10;99.90
5588;DHT22;2816;49.778;9.986;2024-03-06T16:07:25;10.10;99.90
5588;DHT22;2816;49.778;9.986;2024-03-06T16:09:53;10.00;99.90
5588;DHT22;2816;49.778;9.986;2024-03-06T16:12:21;10.00;99.90
5588;DHT22;2816;49.778;9.986;2024-03-06T16:14:49;10.00;99.90
5588;DHT22;2816;49.778;9.986;2024-03-06T16:17:16;9.90;99.90
5588;DHT22;2816;49.778;9.986;2024-03-06T16:19:43;9.90;99.90
5588;DHT22;2816;49.778;9.986;2024-03-06T16:22:11;9.90;99.90